Time;durP1;ratioP1;P1;durP2;ratioP2;P2;SDS_P1;SDS_P2;PMS_P1;PMS_P2;Temp;Humidity;BMP_temperature;BMP_pressure;BME280_temperature;BME280_humidity;BME280_pressure;Samples;Min_cycle;Max_cycle;Signal;HPM_P1;HPM_P2
2022/08/09 00:02:06;;;;;;;3.20;2.85;;;15.70;99.90;;;;;;5111664;28;20105;-72
2022/08/09 00:04:32;;;;;;;4.45;2.83;;;15.70;99.90;;;;;;5115080;28;20044;-71
2022/08/09 00:06:58;;;;;;;3.00;2.15;;;15.60;99.90;;;;;;5116645;28;20044;-72
2022/08/09 00:09:24;;;;;;;3.38;2.40;;;15.60;99.90;;;;;;5116915;28;20177;-72
2022/08/09 00:11:50;;;;;;;3.25;2.60;;;15.60;99.90;;;;;;5116501;28;20130;-72
2022/08/09 00:14:16;;;;;;;3.30;2.17;;;15.50;99.90;;;;;;5116536;28;20039;-72
2022/08/09 00:16:42;;;;;;;4.47;2.47;;;15.50;99.90;;;;;;5116675;28;20536;-72
2022/08/09 00:19:08;;;;;;;3.65;2.28;;;15.50;99.90;;;;;;5115643;28;20040;-72
2022/08/09 00:21:35;;;;;;;4.10;2.35;;;15.50;99.90;;;;;;5115441;28;20044;-72
2022/08/09 00:24:01;;;;;;;3.97;2.45;;;15.40;99.90;;;;;;5116630;28;20054;-72
2022/08/09 00:26:28;;;;;;;3.75;2.83;;;15.40;99.90;;;;;;5116564;27;20490;-72
2022/08/09 00:28:53;;;;;;;2.72;2.05;;;15.40;99.90;;;;;;5116486;28;20088;-71
2022/08/09 00:31:24;;;;;;;4.35;2.80;;;15.40;99.90;;;;;;5114960;28;20089;-72
2022/08/09 00:33:51;;;;;;;3.92;2.88;;;15.40;99.90;;;;;;5116490;28;20138;-72
2022/08/09 00:36:16;;;;;;;4.03;2.67;;;15.30;99.90;;;;;;5116197;28;20400;-72
2022/08/09 00:38:43;;;;;;;4.10;2.90;;;15.30;99.90;;;;;;5116288;28;20055;-72
2022/08/09 00:41:09;;;;;;;5.38;2.63;;;15.30;99.90;;;;;;5116281;28;20055;-72
2022/08/09 00:43:36;;;;;;;5.25;2.83;;;15.30;99.90;;;;;;5116313;28;20040;-73
2022/08/09 00:46:07;;;;;;;4.90;3.10;;;15.30;99.90;;;;;;5116143;28;20445;-72
2022/08/09 00:48:33;;;;;;;5.88;3.33;;;15.30;99.90;;;;;;5116385;28;20055;-72
2022/08/09 00:51:07;;;;;;;4.22;3.17;;;15.30;99.90;;;;;;5115979;28;20368;-72
2022/08/09 00:53:37;;;;;;;4.00;3.10;;;15.30;99.90;;;;;;5115866;28;20123;-72
2022/08/09 00:56:07;;;;;;;5.50;3.42;;;15.30;99.90;;;;;;5115850;28;20056;-72
2022/08/09 00:58:34;;;;;;;4.47;3.58;;;15.30;99.90;;;;;;5115960;28;20052;-72
2022/08/09 01:01:05;;;;;;;4.28;3.65;;;15.30;99.90;;;;;;5115259;27;20051;-72
2022/08/09 01:03:37;;;;;;;4.90;3.22;;;15.30;99.90;;;;;;5116098;28;20488;-71
2022/08/09 01:06:09;;;;;;;4.32;3.08;;;15.30;99.90;;;;;;5115614;28;20082;-72
2022/08/09 01:09:03;;;;;;;4.97;3.28;;;15.30;99.90;;;;;;5116117;28;20088;-72
2022/08/09 01:12:05;;;;;;;7.00;3.97;;;15.30;99.90;;;;;;5115798;28;20047;-72
2022/08/09 01:14:47;;;;;;;4.25;2.72;;;15.20;99.90;;;;;;5115658;28;20039;-72
2022/08/09 01:17:25;;;;;;;3.92;2.90;;;15.20;99.90;;;;;;5115607;28;20046;-71
2022/08/09 01:19:59;;;;;;;4.50;3.03;;;15.20;99.90;;;;;;5113542;28;20039;-72
2022/08/09 01:22:56;;;;;;;4.47;2.85;;;15.20;99.90;;;;;;5113432;28;20039;-73
2022/08/09 01:25:56;;;;;;;4.97;3.28;;;15.20;99.90;;;;;;5115236;28;20077;-72
2022/08/09 01:28:23;;;;;;;5.45;3.25;;;15.20;99.90;;;;;;5083285;28;20047;-71
2022/08/09 01:30:52;;;;;;;4.72;2.90;;;14.70;99.90;;;;;;5114549;28;20055;-72
2022/08/09 01:33:21;;;;;;;5.07;2.97;;;15.10;99.90;;;;;;5114584;28;20047;-72
2022/08/09 01:35:56;;;;;;;3.58;3.13;;;15.10;99.90;;;;;;5115146;28;20039;-71
2022/08/09 01:38:27;;;;;;;3.83;2.63;;;15.10;99.90;;;;;;5113945;28;20055;-72
2022/08/09 01:41:10;;;;;;;3.70;2.55;;;15.00;99.90;;;;;;5115026;28;20135;-72
2022/08/09 01:43:39;;;;;;;4.05;2.47;;;15.00;99.90;;;;;;5114816;28;20048;-72
2022/08/09 01:46:05;;;;;;;4.13;2.60;;;15.00;99.90;;;;;;5113825;28;20131;-72
2022/08/09 01:48:33;;;;;;;4.78;2.60;;;15.00;99.90;;;;;;5113807;28;20106;-72
2022/08/09 01:51:00;;;;;;;3.22;2.47;;;15.00;99.90;;;;;;5113926;28;20048;-72
2022/08/09 01:53:27;;;;;;;6.28;2.05;;;15.00;99.90;;;;;;5113534;28;20087;-72
2022/08/09 01:55:55;;;;;;;3.22;1.95;;;15.00;99.90;;;;;;5114478;28;20067;-72
2022/08/09 01:58:21;;;;;;;3.70;2.53;;;15.00;99.90;;;;;;5097052;28;20056;-72
2022/08/09 02:00:49;;;;;;;4.28;2.75;;;14.90;99.90;;;;;;5114225;28;20123;-73
2022/08/09 02:03:17;;;;;;;2.70;2.28;;;14.90;99.90;;;;;;5114491;28;20086;-72
2022/08/09 02:05:47;;;;;;;2.72;2.33;;;14.90;99.90;;;;;;5114335;28;20046;-72
2022/08/09 02:08:16;;;;;;;3.08;2.22;;;14.90;99.90;;;;;;5114783;28;20070;-72
2022/08/09 02:10:46;;;;;;;3.20;2.28;;;14.90;99.90;;;;;;5113770;28;20502;-72
2022/08/09 02:13:13;;;;;;;3.50;2.30;;;14.80;99.90;;;;;;5113288;28;20153;-72
2022/08/09 02:15:42;;;;;;;4.00;2.88;;;14.90;99.90;;;;;;5113399;28;20040;-73
2022/08/09 02:18:09;;;;;;;2.47;2.28;;;14.80;99.90;;;;;;5113532;28;20142;-72
2022/08/09 02:20:39;;;;;;;3.72;2.42;;;14.80;99.90;;;;;;5114466;28;20096;-72
2022/08/09 02:23:07;;;;;;;2.95;2.38;;;14.80;99.90;;;;;;5113020;28;20039;-72
2022/08/09 02:25:36;;;;;;;3.88;2.55;;;14.80;99.90;;;;;;5114020;28;20043;-72
2022/08/09 02:28:08;;;;;;;4.18;2.50;;;14.80;99.90;;;;;;5113609;28;20054;-72
2022/08/09 02:30:42;;;;;;;4.82;2.20;;;14.80;99.90;;;;;;5113672;28;20035;-73
2022/08/09 02:33:13;;;;;;;3.83;2.67;;;14.70;99.90;;;;;;5114454;28;20411;-72
2022/08/09 02:35:40;;;;;;;3.78;2.20;;;14.70;99.90;;;;;;5112923;28;20127;-72
2022/08/09 02:38:09;;;;;;;3.03;2.38;;;14.70;99.90;;;;;;5114205;28;20059;-72
2022/08/09 02:40:37;;;;;;;3.38;2.28;;;14.70;99.90;;;;;;5114082;28;20047;-73
2022/08/09 02:43:05;;;;;;;4.15;2.65;;;14.70;99.90;;;;;;5112790;28;20512;-72
2022/08/09 02:45:36;;;;;;;3.45;2.40;;;14.60;99.90;;;;;;5114145;28;20050;-72
2022/08/09 02:48:07;;;;;;;3.65;2.40;;;14.70;99.90;;;;;;5114163;28;20044;-72
2022/08/09 02:50:37;;;;;;;3.20;2.13;;;14.60;99.90;;;;;;5113929;28;20117;-73
2022/08/09 02:53:10;;;;;;;3.88;2.63;;;14.60;99.90;;;;;;5113208;28;20647;-73
2022/08/09 02:55:39;;;;;;;3.85;2.38;;;14.60;99.90;;;;;;5112651;28;20051;-72
2022/08/09 02:58:07;;;;;;;3.50;2.85;;;14.50;99.90;;;;;;5113883;28;20052;-72
2022/08/09 03:00:33;;;;;;;3.45;2.33;;;14.50;99.90;;;;;;5113149;28;20048;-73
2022/08/09 03:02:59;;;;;;;4.57;2.55;;;14.50;99.90;;;;;;5112922;28;20043;-72
2022/08/09 03:05:26;;;;;;;3.65;2.65;;;14.50;99.90;;;;;;5112780;28;20517;-72
2022/08/09 03:07:53;;;;;;;2.75;1.88;;;14.50;99.90;;;;;;5113640;28;20040;-73
2022/08/09 03:10:20;;;;;;;2.75;2.13;;;14.50;99.90;;;;;;5114099;28;20487;-72
2022/08/09 03:12:48;;;;;;;2.60;1.80;;;14.40;99.90;;;;;;5112859;28;20391;-73
2022/08/09 03:15:14;;;;;;;2.72;2.05;;;14.40;99.90;;;;;;5112580;28;20036;-72
2022/08/09 03:17:42;;;;;;;3.42;2.10;;;14.40;99.90;;;;;;5113804;28;20086;-73
2022/08/09 03:20:08;;;;;;;4.20;1.77;;;14.40;99.90;;;;;;5113903;28;20440;-73
2022/08/09 03:22:39;;;;;;;3.15;1.80;;;14.40;99.90;;;;;;5114125;28;20077;-72
2022/08/09 03:25:06;;;;;;;2.78;1.70;;;14.40;99.90;;;;;;5113766;28;20126;-72
2022/08/09 03:27:33;;;;;;;3.10;1.58;;;14.40;99.90;;;;;;5113613;28;20122;-72
2022/08/09 03:30:00;;;;;;;2.80;1.80;;;14.40;99.90;;;;;;5113592;28;20039;-73
2022/08/09 03:32:30;;;;;;;3.35;1.90;;;14.30;99.90;;;;;;5112012;28;20046;-72
2022/08/09 03:34:57;;;;;;;2.95;1.77;;;14.30;99.90;;;;;;5114250;28;20047;-72
2022/08/09 03:37:22;;;;;;;3.17;2.03;;;14.30;99.90;;;;;;5112108;28;20039;-73
2022/08/09 03:39:48;;;;;;;3.70;2.08;;;14.30;99.90;;;;;;5116027;28;20040;-72
2022/08/09 03:42:14;;;;;;;3.42;1.98;;;14.30;99.90;;;;;;5117297;28;20043;-72
2022/08/09 03:44:39;;;;;;;2.35;2.10;;;14.30;99.90;;;;;;5099352;28;20039;-72
2022/08/09 03:47:05;;;;;;;3.25;1.90;;;14.30;99.90;;;;;;5099244;28;20055;-72
2022/08/09 03:49:33;;;;;;;4.28;2.50;;;14.20;99.90;;;;;;5117454;28;20040;-73
2022/08/09 03:51:59;;;;;;;2.63;2.03;;;14.30;99.90;;;;;;5116269;28;20078;-73
2022/08/09 03:54:36;;;;;;;3.05;1.88;;;14.20;99.90;;;;;;5117075;28;20040;-73
2022/08/09 03:57:05;;;;;;;3.35;2.15;;;14.20;99.90;;;;;;5116829;28;20056;-73
2022/08/09 03:59:32;;;;;;;3.00;1.67;;;14.30;99.90;;;;;;5117266;28;20113;-74
2022/08/09 04:01:58;;;;;;;2.65;1.80;;;14.20;99.90;;;;;;5116529;28;20048;-74
2022/08/09 04:04:28;;;;;;;2.60;2.13;;;14.30;99.90;;;;;;5116829;28;20044;-73
2022/08/09 04:06:54;;;;;;;2.92;1.85;;;14.30;99.90;;;;;;5116764;28;20075;-73
2022/08/09 04:09:20;;;;;;;2.25;1.67;;;14.30;99.90;;;;;;5116916;28;20101;-73
2022/08/09 04:12:06;;;;;;;4.10;1.90;;;14.20;99.90;;;;;;5115652;28;20039;-73
2022/08/09 04:14:32;;;;;;;2.53;2.08;;;14.30;99.90;;;;;;5117045;28;20096;-73
2022/08/09 04:16:57;;;;;;;4.07;2.03;;;14.20;99.90;;;;;;5115948;28;20433;-72
2022/08/09 04:19:23;;;;;;;3.20;2.00;;;14.20;99.90;;;;;;5115523;28;20043;-73
2022/08/09 04:21:49;;;;;;;3.50;2.10;;;14.20;99.90;;;;;;5116679;28;20501;-73
2022/08/09 04:24:14;;;;;;;2.35;1.38;;;14.20;99.90;;;;;;5116517;28;20047;-72
2022/08/09 04:26:40;;;;;;;2.92;1.80;;;14.20;99.90;;;;;;5116728;28;20407;-72
2022/08/09 04:29:06;;;;;;;2.20;1.65;;;14.20;99.90;;;;;;5117039;28;20051;-73
2022/08/09 04:31:32;;;;;;;2.65;1.65;;;14.20;99.90;;;;;;5098004;28;20058;-73
2022/08/09 04:33:57;;;;;;;3.53;1.92;;;14.20;99.90;;;;;;5116531;28;20047;-73
2022/08/09 04:36:26;;;;;;;2.00;1.35;;;14.20;99.90;;;;;;5115099;28;20127;-72
2022/08/09 04:38:53;;;;;;;3.25;1.63;;;14.20;99.90;;;;;;5115133;28;20425;-73
2022/08/09 04:41:19;;;;;;;2.58;1.15;;;14.30;99.90;;;;;;5116457;28;20140;-72
2022/08/09 04:43:45;;;;;;;2.33;1.45;;;14.30;99.90;;;;;;5116339;28;20043;-72
2022/08/09 04:46:11;;;;;;;2.33;1.27;;;14.30;99.90;;;;;;5115326;28;20043;-73
2022/08/09 04:48:36;;;;;;;2.58;1.10;;;14.30;99.90;;;;;;5116330;28;20097;-72
2022/08/09 04:51:02;;;;;;;1.88;1.00;;;14.40;99.90;;;;;;5115666;28;20604;-72
2022/08/09 04:53:28;;;;;;;3.10;1.30;;;14.40;99.90;;;;;;5116062;27;20046;-72
2022/08/09 04:55:53;;;;;;;2.60;1.30;;;14.40;99.90;;;;;;5115980;28;20561;-73
2022/08/09 04:58:19;;;;;;;1.73;1.27;;;14.40;99.90;;;;;;5115318;28;20052;-73
2022/08/09 05:00:45;;;;;;;1.80;1.20;;;14.50;99.90;;;;;;5115720;28;20102;-72
2022/08/09 05:03:10;;;;;;;1.73;1.17;;;14.50;99.90;;;;;;5115783;28;20100;-73
2022/08/09 05:05:37;;;;;;;3.97;1.30;;;14.60;99.90;;;;;;5116003;28;20044;-72
2022/08/09 05:08:03;;;;;;;2.30;1.10;;;14.60;99.90;;;;;;5115671;28;20038;-73
2022/08/09 05:10:28;;;;;;;3.78;1.20;;;14.60;99.90;;;;;;5097876;28;20066;-72
2022/08/09 05:12:54;;;;;;;2.90;1.20;;;14.60;99.90;;;;;;5116331;28;20476;-72
2022/08/09 05:15:20;;;;;;;1.70;1.30;;;14.70;99.90;;;;;;5115731;28;20483;-72
2022/08/09 05:17:46;;;;;;;2.10;1.30;;;14.70;99.90;;;;;;5115662;28;20040;-73
2022/08/09 05:20:11;;;;;;;1.80;1.20;;;14.80;99.90;;;;;;5115534;28;20047;-73
2022/08/09 05:22:37;;;;;;;4.47;2.10;;;14.80;99.90;;;;;;5114371;28;20130;-73
2022/08/09 05:25:04;;;;;;;3.85;2.25;;;14.80;99.90;;;;;;5115578;28;20039;-73
2022/08/09 05:27:30;;;;;;;3.22;2.45;;;14.90;99.90;;;;;;5115522;28;20052;-73
2022/08/09 05:29:55;;;;;;;6.95;2.58;;;14.90;99.90;;;;;;5115594;28;20049;-73
2022/08/09 05:32:22;;;;;;;6.10;3.08;;;15.00;99.90;;;;;;5114741;28;20039;-73
2022/08/09 05:34:47;;;;;;;3.63;2.35;;;15.10;99.90;;;;;;5115367;28;20158;-72
2022/08/09 05:37:14;;;;;;;5.43;2.80;;;15.20;99.90;;;;;;5115014;28;20101;-73
2022/08/09 05:39:40;;;;;;;4.10;2.60;;;15.20;99.90;;;;;;5115276;28;20040;-73
2022/08/09 05:42:06;;;;;;;4.03;2.47;;;15.30;99.90;;;;;;5115208;28;20051;-73
2022/08/09 05:44:32;;;;;;;4.10;2.70;;;15.40;99.90;;;;;;5115274;27;20047;-73
2022/08/09 05:46:58;;;;;;;4.20;3.08;;;15.40;99.90;;;;;;5115066;28;20082;-73
2022/08/09 05:49:24;;;;;;;4.10;2.85;;;15.50;99.90;;;;;;5115064;28;20047;-73
2022/08/09 05:51:49;;;;;;;4.97;3.40;;;15.50;99.90;;;;;;5114967;28;20050;-73
2022/08/09 05:54:15;;;;;;;5.75;3.20;;;15.60;99.90;;;;;;5096876;28;20487;-73
2022/08/09 05:56:41;;;;;;;5.75;3.38;;;15.60;99.90;;;;;;5113614;28;20048;-73
2022/08/09 05:59:06;;;;;;;4.95;3.50;;;15.70;99.90;;;;;;5113870;28;20051;-73
2022/08/09 06:01:32;;;;;;;5.35;3.35;;;15.70;99.90;;;;;;5112328;28;20065;-73
2022/08/09 06:03:58;;;;;;;7.05;3.05;;;15.80;99.90;;;;;;5114683;27;20043;-73
2022/08/09 06:06:24;;;;;;;6.18;2.55;;;15.90;99.90;;;;;;5096454;28;20043;-73
2022/08/09 06:08:51;;;;;;;5.30;3.67;;;15.90;99.90;;;;;;5115020;28;20047;-73
2022/08/09 06:11:16;;;;;;;6.25;3.45;;;16.00;99.90;;;;;;5114731;28;20047;-73
2022/08/09 06:13:42;;;;;;;6.97;2.85;;;16.00;99.90;;;;;;5114507;28;20044;-73
2022/08/09 06:16:09;;;;;;;5.70;2.95;;;16.10;99.90;;;;;;5114518;27;20091;-72
2022/08/09 06:18:36;;;;;;;7.47;4.95;;;16.20;99.90;;;;;;5114568;28;20380;-72
2022/08/09 06:21:02;;;;;;;4.30;2.92;;;16.20;99.90;;;;;;5114227;28;20126;-73
2022/08/09 06:23:31;;;;;;;5.55;3.08;;;16.30;99.90;;;;;;5114256;28;20476;-72
2022/08/09 06:25:57;;;;;;;4.32;2.67;;;16.40;99.90;;;;;;5114409;28;20043;-73
2022/08/09 06:28:22;;;;;;;5.88;3.05;;;16.40;99.90;;;;;;5114345;28;20035;-72
2022/08/09 06:30:48;;;;;;;6.53;3.20;;;16.50;99.90;;;;;;5112663;28;20039;-73
2022/08/09 06:33:14;;;;;;;4.85;2.80;;;16.50;99.90;;;;;;5114197;28;20071;-72
2022/08/09 06:35:39;;;;;;;5.72;2.83;;;16.60;99.90;;;;;;5113102;28;20073;-73
2022/08/09 06:38:06;;;;;;;5.97;2.85;;;16.70;99.90;;;;;;5114217;28;20475;-73
2022/08/09 06:40:32;;;;;;;4.15;2.83;;;16.70;99.90;;;;;;5114565;28;20048;-73
2022/08/09 06:42:59;;;;;;;4.45;3.20;;;16.70;99.90;;;;;;5113982;28;20050;-72
2022/08/09 06:45:26;;;;;;;5.18;2.80;;;16.80;99.90;;;;;;5114096;28;20069;-72
2022/08/09 06:47:52;;;;;;;4.97;2.70;;;16.90;99.90;;;;;;5113840;28;20040;-72
2022/08/09 06:50:17;;;;;;;3.72;2.45;;;16.90;99.90;;;;;;5113866;28;20080;-72
2022/08/09 06:52:46;;;;;;;4.57;2.70;;;17.00;99.90;;;;;;5114184;28;20048;-71
2022/08/09 06:55:17;;;;;;;3.20;1.70;;;17.10;99.90;;;;;;5114099;28;20082;-71
2022/08/09 06:57:43;;;;;;;2.83;1.20;;;17.10;99.90;;;;;;5095834;28;20051;-72
2022/08/09 07:00:10;;;;;;;6.85;1.52;;;17.20;99.90;;;;;;5113998;28;20059;-73
2022/08/09 07:02:36;;;;;;;2.03;0.63;;;17.20;99.90;;;;;;5116529;28;20043;-72
2022/08/09 07:05:03;;;;;;;3.20;0.90;;;17.30;99.90;;;;;;5114071;28;20047;-72
2022/08/09 07:07:29;;;;;;;3.38;0.70;;;17.40;99.90;;;;;;5114053;28;20110;-72
2022/08/09 07:09:55;;;;;;;1.35;0.82;;;17.50;99.90;;;;;;5114064;28;20119;-73
2022/08/09 07:12:21;;;;;;;4.63;0.70;;;17.60;99.90;;;;;;5079271;28;20050;-73
2022/08/09 07:14:47;;;;;;;1.00;0.70;;;17.60;99.90;;;;;;5118143;27;20091;-73
2022/08/09 07:17:13;;;;;;;0.68;0.60;;;17.70;99.90;;;;;;5118002;28;20050;-73
2022/08/09 07:19:39;;;;;;;1.00;0.55;;;17.70;99.90;;;;;;5117896;28;20036;-73
2022/08/09 07:22:06;;;;;;;0.60;0.50;;;17.80;99.90;;;;;;5117126;28;20055;-73
2022/08/09 07:24:32;;;;;;;1.25;0.45;;;17.80;99.90;;;;;;5117998;28;20509;-73
2022/08/09 07:26:58;;;;;;;0.80;0.60;;;17.90;99.90;;;;;;5099928;28;20429;-72
2022/08/09 07:29:25;;;;;;;0.95;0.45;;;18.00;99.90;;;;;;5117900;28;20476;-72
2022/08/09 07:31:51;;;;;;;1.38;1.00;;;18.00;99.90;;;;;;5116171;28;20053;-72
2022/08/09 07:34:17;;;;;;;0.68;0.50;;;18.00;99.90;;;;;;5118566;28;20043;-72
2022/08/09 07:36:42;;;;;;;0.50;0.40;;;18.10;99.90;;;;;;5117723;28;20388;-72
2022/08/09 07:39:08;;;;;;;2.50;0.55;;;18.10;99.90;;;;;;5105098;28;20102;-71
2022/08/09 07:41:34;;;;;;;1.00;0.45;;;18.20;99.90;;;;;;5109380;28;20043;-72
2022/08/09 07:44:00;;;;;;;0.93;0.60;;;18.20;99.90;;;;;;5109763;28;20228;-72
2022/08/09 07:46:26;;;;;;;2.13;0.50;;;18.30;99.90;;;;;;5111510;28;20044;-72
2022/08/09 07:48:52;;;;;;;0.70;0.50;;;18.30;99.90;;;;;;5114707;28;20062;-75
2022/08/09 07:51:18;;;;;;;0.70;0.50;;;18.40;99.90;;;;;;5116983;27;20039;-73
2022/08/09 07:53:44;;;;;;;0.70;0.50;;;18.40;99.90;;;;;;5116850;28;20043;-73
2022/08/09 07:56:10;;;;;;;1.83;0.45;;;18.40;99.90;;;;;;5115541;28;20396;-73
2022/08/09 07:58:36;;;;;;;0.80;0.50;;;18.40;99.90;;;;;;5114100;28;20056;-74
2022/08/09 08:01:02;;;;;;;1.10;0.63;;;18.50;99.90;;;;;;5116012;28;20114;-72
2022/08/09 08:03:28;;;;;;;0.90;0.43;;;18.50;99.90;;;;;;5098490;28;20039;-73
2022/08/09 08:05:53;;;;;;;1.58;0.70;;;18.50;99.90;;;;;;5115608;28;20065;-73
2022/08/09 08:08:19;;;;;;;0.55;0.50;;;18.60;99.90;;;;;;5116652;28;20036;-73
2022/08/09 08:10:45;;;;;;;1.40;0.50;;;18.60;99.90;;;;;;5116548;28;20419;-73
2022/08/09 08:13:11;;;;;;;0.85;0.50;;;18.60;99.90;;;;;;5116451;28;20036;-74
2022/08/09 08:15:36;;;;;;;1.85;0.57;;;18.70;99.90;;;;;;5115152;28;20441;-74
2022/08/09 08:18:02;;;;;;;0.50;0.40;;;18.80;99.90;;;;;;5115068;28;20039;-75
2022/08/09 08:20:29;;;;;;;1.33;0.47;;;18.80;99.90;;;;;;5116330;27;20122;-73
2022/08/09 08:22:54;;;;;;;1.13;0.40;;;18.90;99.90;;;;;;5116403;28;20078;-73
2022/08/09 08:25:20;;;;;;;1.27;0.50;;;18.90;99.90;;;;;;5115457;27;20143;-73
2022/08/09 08:27:46;;;;;;;0.88;0.50;;;19.00;99.90;;;;;;5116137;28;20031;-73
2022/08/09 08:30:17;;;;;;;1.58;0.50;;;19.00;99.90;;;;;;5111698;28;20074;-73
2022/08/09 08:32:43;;;;;;;1.30;0.40;;;19.10;99.90;;;;;;5099173;28;20052;-70
2022/08/09 08:35:09;;;;;;;1.38;0.43;;;19.10;99.90;;;;;;5098818;28;20040;-72
2022/08/09 08:37:35;;;;;;;1.00;0.50;;;19.20;99.90;;;;;;5092168;28;20051;-72
2022/08/09 08:40:03;;;;;;;0.93;0.40;;;19.20;99.90;;;;;;5095845;28;20150;-72
2022/08/09 08:42:30;;;;;;;0.68;0.40;;;19.20;99.90;;;;;;5100159;28;20043;-72
2022/08/09 08:44:58;;;;;;;1.15;0.50;;;19.30;99.90;;;;;;5095041;28;20133;-72
2022/08/09 08:47:26;;;;;;;1.40;0.40;;;19.30;99.90;;;;;;5096309;28;20090;-73
2022/08/09 08:49:58;;;;;;;0.85;0.70;;;19.30;99.90;;;;;;5095183;28;20480;-72
2022/08/09 08:52:26;;;;;;;0.32;0.32;;;19.40;99.90;;;;;;5098834;28;20047;-72
2022/08/09 08:54:56;;;;;;;0.40;0.40;;;19.50;99.90;;;;;;5096643;28;20407;-72
2022/08/09 08:57:23;;;;;;;1.67;0.40;;;19.60;99.90;;;;;;5095417;28;20396;-72
2022/08/09 08:59:50;;;;;;;1.77;0.60;;;19.70;99.90;;;;;;5098017;28;20051;-72
2022/08/09 09:02:27;;;;;;;1.48;0.95;;;19.70;99.90;;;;;;5093288;28;20077;-72
2022/08/09 09:04:55;;;;;;;0.40;0.30;;;19.70;99.90;;;;;;5097502;28;20542;-71
2022/08/09 09:07:22;;;;;;;0.40;0.32;;;19.70;99.90;;;;;;5092766;28;20051;-72
2022/08/09 09:09:51;;;;;;;1.85;0.45;;;19.70;99.90;;;;;;5092862;28;20039;-72
2022/08/09 09:12:19;;;;;;;0.73;0.45;;;19.80;99.90;;;;;;5099875;28;20096;-74
2022/08/09 09:14:46;;;;;;;0.40;0.40;;;19.90;99.90;;;;;;5103148;28;20048;-74
2022/08/09 09:17:13;;;;;;;0.45;0.40;;;20.00;99.90;;;;;;5101050;28;20441;-75
2022/08/09 09:19:39;;;;;;;0.60;0.40;;;20.10;99.90;;;;;;5098457;28;20063;-73
2022/08/09 09:22:07;;;;;;;0.73;0.40;;;20.20;99.90;;;;;;5096843;28;20152;-75
2022/08/09 09:24:36;;;;;;;0.85;0.50;;;20.20;99.90;;;;;;5098940;28;20051;-74
2022/08/09 09:27:03;;;;;;;0.40;0.40;;;20.20;99.90;;;;;;5097241;28;20555;-73
2022/08/09 09:29:34;;;;;;;1.05;0.40;;;20.20;99.90;;;;;;5095637;28;20044;-75
2022/08/09 09:32:01;;;;;;;0.85;0.32;;;20.20;99.90;;;;;;5089996;28;20051;-74
2022/08/09 09:34:27;;;;;;;0.40;0.30;;;20.50;99.90;;;;;;5098083;28;20048;-74
2022/08/09 09:36:54;;;;;;;0.70;0.50;;;20.20;99.90;;;;;;5091564;28;20036;-74
2022/08/09 09:39:21;;;;;;;1.27;0.50;;;20.20;99.90;;;;;;5094373;28;20052;-74
2022/08/09 09:41:48;;;;;;;1.70;0.40;;;20.20;99.90;;;;;;5097542;28;20054;-74
2022/08/09 09:44:22;;;;;;;0.40;0.40;;;20.20;99.90;;;;;;5099580;28;20047;-74
2022/08/09 09:46:48;;;;;;;0.30;0.30;;;20.50;99.90;;;;;;5092641;28;20044;-75
2022/08/09 09:49:19;;;;;;;0.55;0.40;;;20.20;99.90;;;;;;5097148;28;20131;-75
2022/08/09 09:51:45;;;;;;;1.13;0.50;;;20.30;99.90;;;;;;5095906;28;20114;-75
2022/08/09 09:54:18;;;;;;;0.47;0.40;;;20.30;99.90;;;;;;5099207;28;20495;-75
2022/08/09 09:56:46;;;;;;;1.95;0.60;;;20.30;99.90;;;;;;5094639;28;20052;-74
2022/08/09 09:59:13;;;;;;;1.38;0.40;;;20.40;99.90;;;;;;5093330;28;20043;-74
2022/08/09 10:01:41;;;;;;;1.45;0.40;;;20.50;99.90;;;;;;5098992;28;20499;-74
2022/08/09 10:04:19;;;;;;;1.08;0.40;;;20.50;99.90;;;;;;5098329;28;20075;-73
2022/08/09 10:06:46;;;;;;;1.02;0.40;;;20.50;99.90;;;;;;5095958;28;20635;-73
2022/08/09 10:09:14;;;;;;;1.50;0.50;;;20.60;99.90;;;;;;5092718;28;20048;-74
2022/08/09 10:11:40;;;;;;;2.20;0.80;;;20.60;99.90;;;;;;5091821;28;20233;-73
2022/08/09 10:14:19;;;;;;;1.08;0.60;;;20.70;99.90;;;;;;5093811;28;20058;-74
2022/08/09 10:16:44;;;;;;;0.98;0.30;;;20.70;99.90;;;;;;5090270;28;20967;-72
2022/08/09 10:19:10;;;;;;;1.05;0.50;;;20.80;99.90;;;;;;5091151;28;20128;-73
2022/08/09 10:21:45;;;;;;;1.85;0.35;;;20.80;99.90;;;;;;5096150;28;20044;-71
2022/08/09 10:24:11;;;;;;;0.65;0.30;;;20.90;99.90;;;;;;5075998;28;21070;-73
2022/08/09 10:26:37;;;;;;;0.88;0.40;;;20.90;99.90;;;;;;5093877;28;20486;-74
2022/08/09 10:29:04;;;;;;;0.80;0.30;;;20.90;99.90;;;;;;5110618;28;20032;-73
2022/08/09 10:31:30;;;;;;;0.75;0.30;;;20.80;99.90;;;;;;5111746;28;20526;-73
2022/08/09 10:33:56;;;;;;;0.52;0.40;;;20.80;99.90;;;;;;5112484;28;20051;-72
2022/08/09 10:36:23;;;;;;;0.50;0.40;;;20.80;99.90;;;;;;5111789;28;20518;-72
2022/08/09 10:38:49;;;;;;;0.45;0.40;;;20.90;99.90;;;;;;5095078;28;20384;-72
2022/08/09 10:41:16;;;;;;;0.40;0.30;;;20.90;99.90;;;;;;5111787;28;20051;-72
2022/08/09 10:43:45;;;;;;;0.50;0.30;;;21.00;99.90;;;;;;5113056;28;20123;-70
2022/08/09 10:46:32;;;;;;;0.32;0.30;;;21.00;99.90;;;;;;5112517;28;20448;-70
2022/08/09 10:49:05;;;;;;;0.90;0.30;;;21.10;99.90;;;;;;5112753;28;20040;-70
2022/08/09 10:51:49;;;;;;;0.65;0.30;;;21.10;99.90;;;;;;5112841;28;20044;-72
2022/08/09 10:54:21;;;;;;;1.92;0.30;;;21.10;99.90;;;;;;5111719;28;20491;-69
2022/08/09 10:56:47;;;;;;;2.38;0.25;;;21.20;99.90;;;;;;5112484;28;20047;-69
2022/08/09 10:59:27;;;;;;;1.15;0.30;;;21.20;99.90;;;;;;5113035;28;20071;-69
2022/08/09 11:01:53;;;;;;;0.82;0.40;;;21.30;99.90;;;;;;5111951;28;20052;-70
2022/08/09 11:04:20;;;;;;;0.90;0.40;;;21.30;99.90;;;;;;5112445;28;20059;-72
2022/08/09 11:07:06;;;;;;;2.47;0.30;;;21.40;99.90;;;;;;5111429;28;20131;-71
2022/08/09 11:09:38;;;;;;;0.30;0.30;;;21.40;99.90;;;;;;5110858;28;20047;-72
2022/08/09 11:12:23;;;;;;;1.00;0.40;;;21.40;99.90;;;;;;5112309;28;20058;-72
2022/08/09 11:15:17;;;;;;;1.17;0.28;;;21.50;99.90;;;;;;5111803;28;20058;-71
2022/08/09 11:17:45;;;;;;;1.10;0.30;;;21.50;99.90;;;;;;5111328;28;20051;-71
2022/08/09 11:20:11;;;;;;;0.40;0.30;;;21.50;99.90;;;;;;5112081;28;20415;-71
2022/08/09 11:22:40;;;;;;;0.80;0.20;;;21.60;99.90;;;;;;5111887;28;20128;-71
2022/08/09 11:25:07;;;;;;;0.30;0.30;;;21.60;99.90;;;;;;5094384;28;20040;-72
2022/08/09 11:27:39;;;;;;;1.88;0.40;;;21.60;99.90;;;;;;5110668;28;20108;-72
2022/08/09 11:30:06;;;;;;;0.90;0.40;;;21.60;99.90;;;;;;5111109;28;20040;-72
2022/08/09 11:32:52;;;;;;;0.75;0.40;;;21.60;99.90;;;;;;5111512;28;20047;-73
2022/08/09 11:35:24;;;;;;;0.30;0.25;;;21.60;99.90;;;;;;5110645;28;20031;-72
2022/08/09 11:37:51;;;;;;;3.83;0.30;;;21.70;99.90;;;;;;5109143;28;20052;-71
2022/08/09 11:40:23;;;;;;;0.22;0.20;;;21.70;99.90;;;;;;5111791;28;20434;-73
2022/08/09 11:42:54;;;;;;;0.20;0.20;;;21.80;99.90;;;;;;5108090;28;20372;-72
2022/08/09 11:45:29;;;;;;;1.48;0.40;;;21.90;99.90;;;;;;5110987;28;20112;-73
2022/08/09 11:48:01;;;;;;;0.20;0.20;;;21.90;99.90;;;;;;5110354;28;20574;-73
2022/08/09 11:50:48;;;;;;;0.70;0.30;;;21.90;99.90;;;;;;5111868;28;20044;-73
2022/08/09 11:53:14;;;;;;;0.43;0.28;;;21.90;99.90;;;;;;5110001;28;20071;-73
2022/08/09 11:55:41;;;;;;;0.63;0.20;;;22.00;99.90;;;;;;5093531;28;20089;-72
2022/08/09 11:58:10;;;;;;;2.05;1.10;;;22.00;99.90;;;;;;5110461;28;20040;-73
2022/08/09 12:00:50;;;;;;;0.40;0.30;;;22.10;99.90;;;;;;5112310;28;20092;-73
2022/08/09 12:03:18;;;;;;;2.50;0.40;;;22.20;99.90;;;;;;5111944;28;20035;-73
2022/08/09 12:05:44;;;;;;;1.05;0.30;;;22.20;99.90;;;;;;5115402;28;20047;-72
2022/08/09 12:08:11;;;;;;;0.30;0.30;;;22.30;99.90;;;;;;5115360;28;20039;-73
2022/08/09 12:11:03;;;;;;;0.50;0.22;;;22.30;99.90;;;;;;5115546;27;20514;-74
2022/08/09 12:13:33;;;;;;;0.75;0.40;;;22.40;99.90;;;;;;5112516;28;20510;-72
2022/08/09 12:16:02;;;;;;;0.63;0.30;;;22.40;99.90;;;;;;5115152;28;20099;-72
2022/08/09 12:18:28;;;;;;;1.67;0.43;;;21.80;99.90;;;;;;5112349;28;20040;-72
2022/08/09 12:20:54;;;;;;;0.88;0.40;;;22.30;99.90;;;;;;5113950;28;20040;-73
2022/08/09 12:23:20;;;;;;;2.00;0.50;;;22.30;99.90;;;;;;5114969;28;20054;-74
2022/08/09 12:25:48;;;;;;;1.02;0.30;;;22.30;99.90;;;;;;5114980;28;20067;-73
2022/08/09 12:28:17;;;;;;;0.70;0.40;;;22.30;99.90;;;;;;5114724;28;20035;-73
2022/08/09 12:30:43;;;;;;;0.35;0.30;;;22.30;99.90;;;;;;5114481;28;20053;-74
2022/08/09 12:33:10;;;;;;;2.88;0.60;;;22.30;99.90;;;;;;5093972;28;20074;-72
2022/08/09 12:35:37;;;;;;;0.40;0.40;;;22.30;99.90;;;;;;5113568;28;20040;-72
2022/08/09 12:38:35;;;;;;;1.27;0.30;;;22.30;99.90;;;;;;5114817;28;20054;-73
2022/08/09 12:41:02;;;;;;;0.75;0.40;;;22.40;99.90;;;;;;5090405;28;20047;-71
2022/08/09 12:43:29;;;;;;;1.05;0.40;;;22.50;99.90;;;;;;5111836;28;20039;-72
2022/08/09 12:45:57;;;;;;;0.55;0.40;;;22.60;99.90;;;;;;5114582;28;20055;-72
2022/08/09 12:48:23;;;;;;;0.60;0.35;;;22.50;99.90;;;;;;5096678;28;20062;-72
2022/08/09 12:50:50;;;;;;;1.95;0.60;;;22.60;99.90;;;;;;5110576;28;20047;-73
2022/08/09 12:53:31;;;;;;;0.52;0.43;;;22.60;99.90;;;;;;5114396;28;20035;-72
2022/08/09 12:56:15;;;;;;;1.17;0.30;;;22.60;99.90;;;;;;5113073;28;20118;-71